Time;durP1;ratioP1;P1;durP2;ratioP2;P2;SDS_P1;SDS_P2;PMS_P1;PMS_P2;Temp;Humidity;BMP_temperature;BMP_pressure;BME280_temperature;BME280_humidity;BME280_pressure;Samples;Min_cycle;Max_cycle;Signal;HPM_P1;HPM_P2
2023/06/22 00:02:18;;;;;;;785.40;722.30;;;;;;;;;;5005601;28;20050;-67
2023/06/22 00:04:45;;;;;;;799.78;735.88;;;;;;;;;;5007303;28;20034;-65
2023/06/22 00:07:12;;;;;;;786.83;725.80;;;;;;;;;;5006500;28;20100;-67
2023/06/22 00:09:38;;;;;;;780.00;719.60;;;;;;;;;;5004100;28;20042;-62
2023/06/22 00:12:05;;;;;;;797.90;734.63;;;;;;;;;;5003962;28;20045;-66
2023/06/22 00:14:32;;;;;;;793.97;731.42;;;;;;;;;;5006611;28;20072;-66
2023/06/22 00:16:59;;;;;;;780.15;719.15;;;;;;;;;;5004752;28;20058;-67
2023/06/22 00:19:25;;;;;;;779.35;717.92;;;;;;;;;;5004216;28;20369;-66
2023/06/22 00:21:53;;;;;;;794.15;732.25;;;;;;;;;;5002082;28;20408;-68
2023/06/22 00:24:20;;;;;;;751.85;693.05;;;;;;;;;;5005911;28;20044;-67
2023/06/22 00:26:50;;;;;;;782.63;717.53;;;;;;;;;;5002632;28;20050;-67
2023/06/22 00:29:18;;;;;;;763.88;705.40;;;;;;;;;;5002529;28;20050;-67
2023/06/22 00:31:44;;;;;;;770.28;710.03;;;;;;;;;;5001765;28;20464;-70
2023/06/22 00:34:11;;;;;;;781.13;718.30;;;;;;;;;;5005059;28;20381;-67
2023/06/22 00:36:40;;;;;;;763.75;704.63;;;;;;;;;;4987046;28;20050;-66
2023/06/22 00:39:08;;;;;;;770.83;707.85;;;;;;;;;;4986687;28;20056;-67
2023/06/22 00:41:35;;;;;;;753.58;696.15;;;;;;;;;;5000110;28;20050;-67
2023/06/22 00:44:03;;;;;;;756.65;697.17;;;;;;;;;;5004888;28;20101;-65
2023/06/22 00:46:30;;;;;;;752.17;693.75;;;;;;;;;;4985202;28;20039;-66
2023/06/22 00:48:59;;;;;;;738.80;682.20;;;;;;;;;;5005557;28;20073;-62
2023/06/22 00:51:27;;;;;;;752.22;691.17;;;;;;;;;;5005999;28;20073;-68
2023/06/22 00:53:54;;;;;;;759.35;697.55;;;;;;;;;;4985148;28;20042;-66
2023/06/22 00:56:24;;;;;;;739.17;681.55;;;;;;;;;;4991651;28;20577;-65
2023/06/22 00:58:52;;;;;;;750.97;690.05;;;;;;;;;;5001854;28;20458;-65
2023/06/22 01:01:23;;;;;;;744.47;686.30;;;;;;;;;;5000069;28;20041;-68
2023/06/22 01:03:50;;;;;;;752.13;691.03;;;;;;;;;;5002865;28;20456;-65
2023/06/22 01:06:21;;;;;;;722.13;666.05;;;;;;;;;;5005960;28;20117;-66
2023/06/22 01:08:53;;;;;;;735.15;674.97;;;;;;;;;;4991329;28;20050;-65
2023/06/22 01:11:24;;;;;;;742.35;683.40;;;;;;;;;;5000262;28;20710;-66
2023/06/22 01:13:57;;;;;;;735.47;676.83;;;;;;;;;;5003581;28;20612;-64
2023/06/22 01:16:25;;;;;;;729.78;672.30;;;;;;;;;;5000094;28;20129;-66
2023/06/22 01:18:54;;;;;;;730.92;673.08;;;;;;;;;;5005510;28;20434;-66
2023/06/22 01:21:23;;;;;;;740.20;678.00;;;;;;;;;;5003837;28;20050;-66
2023/06/22 01:23:59;;;;;;;740.03;679.25;;;;;;;;;;5001715;28;20042;-66
2023/06/22 01:26:36;;;;;;;733.35;674.63;;;;;;;;;;5003239;28;20050;-67
2023/06/22 01:29:03;;;;;;;730.40;672.72;;;;;;;;;;5004442;28;20054;-66
2023/06/22 01:31:31;;;;;;;721.92;665.85;;;;;;;;;;5001086;28;20073;-63
2023/06/22 01:34:05;;;;;;;709.03;653.08;;;;;;;;;;5003309;28;20547;-66
2023/06/22 01:36:33;;;;;;;723.80;666.28;;;;;;;;;;5002572;28;20047;-63
2023/06/22 01:39:00;;;;;;;734.85;674.42;;;;;;;;;;5005186;28;20077;-67
2023/06/22 01:41:28;;;;;;;720.97;663.05;;;;;;;;;;5000468;28;20054;-65
2023/06/22 01:43:55;;;;;;;724.17;667.47;;;;;;;;;;5002832;28;20052;-66
2023/06/22 01:46:22;;;;;;;715.92;659.60;;;;;;;;;;5000130;28;20496;-66
2023/06/22 01:48:50;;;;;;;718.63;659.55;;;;;;;;;;5002921;28;20046;-66
2023/06/22 01:51:17;;;;;;;723.53;665.67;;;;;;;;;;5002043;28;20484;-66
2023/06/22 01:53:43;;;;;;;726.63;669.40;;;;;;;;;;4989584;28;20050;-64
2023/06/22 01:56:10;;;;;;;709.92;654.17;;;;;;;;;;4998813;28;20053;-66
2023/06/22 01:58:43;;;;;;;722.80;665.17;;;;;;;;;;4990407;28;20480;-67
2023/06/22 02:01:11;;;;;;;908.67;736.28;;;;;;;;;;5041820;23;20219;-66
2023/06/22 02:03:47;;;;;;;724.20;665.20;;;;;;;;;;5006522;28;20030;-64
2023/06/22 02:06:16;;;;;;;729.45;668.40;;;;;;;;;;5005552;28;20480;-64
2023/06/22 02:08:48;;;;;;;730.90;668.97;;;;;;;;;;5007290;28;20689;-65
2023/06/22 02:11:18;;;;;;;727.83;668.10;;;;;;;;;;4986963;28;20046;-64
2023/06/22 02:13:45;;;;;;;726.05;667.45;;;;;;;;;;5019629;28;20053;-65
2023/06/22 02:16:13;;;;;;;725.53;666.08;;;;;;;;;;5008639;28;20125;-64
2023/06/22 02:18:45;;;;;;;725.40;665.70;;;;;;;;;;5003047;28;20459;-63
2023/06/22 02:21:12;;;;;;;723.47;663.72;;;;;;;;;;5021327;28;20048;-64
2023/06/22 02:23:38;;;;;;;719.28;660.92;;;;;;;;;;5017721;28;20060;-63
2023/06/22 02:26:05;;;;;;;739.60;675.40;;;;;;;;;;5001356;28;20069;-63
2023/06/22 02:28:32;;;;;;;717.03;659.13;;;;;;;;;;5018941;28;20042;-64
2023/06/22 02:30:58;;;;;;;717.33;659.22;;;;;;;;;;5018692;28;20046;-65
2023/06/22 02:33:25;;;;;;;733.30;671.60;;;;;;;;;;5020608;28;20048;-63
2023/06/22 02:35:52;;;;;;;745.03;679.78;;;;;;;;;;5017866;28;20045;-63
2023/06/22 02:38:24;;;;;;;714.47;655.78;;;;;;;;;;5022162;28;20046;-64
2023/06/22 02:40:51;;;;;;;736.28;674.55;;;;;;;;;;5009051;28;20049;-63
2023/06/22 02:43:17;;;;;;;727.47;667.38;;;;;;;;;;5005952;28;20095;-63
2023/06/22 02:45:44;;;;;;;733.25;671.97;;;;;;;;;;5019971;28;20033;-64
2023/06/22 02:48:11;;;;;;;729.40;669.15;;;;;;;;;;4986604;28;20386;-63
2023/06/22 02:50:38;;;;;;;742.38;679.45;;;;;;;;;;4995754;28;20136;-63
2023/06/22 02:53:05;;;;;;;766.58;698.03;;;;;;;;;;4987220;28;20073;-64
2023/06/22 02:55:35;;;;;;;739.35;678.13;;;;;;;;;;5002430;28;20064;-63
2023/06/22 02:58:04;;;;;;;740.55;680.20;;;;;;;;;;4985703;28;20057;-63
2023/06/22 03:00:34;;;;;;;743.22;679.90;;;;;;;;;;5020628;28;20053;-65
2023/06/22 03:03:01;;;;;;;747.47;684.55;;;;;;;;;;5018604;28;20104;-64
2023/06/22 03:05:27;;;;;;;731.70;673.60;;;;;;;;;;5011188;28;20075;-63
2023/06/22 03:07:57;;;;;;;751.35;688.40;;;;;;;;;;5008236;28;20050;-64
2023/06/22 03:10:24;;;;;;;752.95;690.35;;;;;;;;;;5000745;28;20552;-66
2023/06/22 03:12:51;;;;;;;736.67;679.03;;;;;;;;;;5006260;28;20132;-64
2023/06/22 03:15:18;;;;;;;736.75;678.05;;;;;;;;;;5002520;28;20053;-63
2023/06/22 03:17:47;;;;;;;769.38;702.15;;;;;;;;;;5007955;28;20108;-64
2023/06/22 03:20:14;;;;;;;739.40;680.90;;;;;;;;;;5010456;28;20056;-64
2023/06/22 03:22:41;;;;;;;759.42;697.50;;;;;;;;;;5007073;28;20049;-64
2023/06/22 03:25:12;;;;;;;756.40;694.70;;;;;;;;;;4992992;28;20073;-65
2023/06/22 03:27:43;;;;;;;767.35;701.72;;;;;;;;;;4989661;28;20446;-65
2023/06/22 03:30:11;;;;;;;767.05;705.25;;;;;;;;;;5005275;28;20148;-65
2023/06/22 03:32:37;;;;;;;763.45;701.42;;;;;;;;;;4989672;28;20053;-64
2023/06/22 03:35:06;;;;;;;760.95;699.30;;;;;;;;;;5011200;28;20049;-63
2023/06/22 03:37:34;;;;;;;769.92;706.90;;;;;;;;;;5012657;28;20049;-63
2023/06/22 03:40:03;;;;;;;761.55;699.38;;;;;;;;;;5005653;28;20049;-63
2023/06/22 03:42:30;;;;;;;763.80;701.13;;;;;;;;;;5005464;28;20442;-64
2023/06/22 03:44:57;;;;;;;797.30;728.20;;;;;;;;;;4987538;28;20049;-64
2023/06/22 03:47:24;;;;;;;753.35;693.25;;;;;;;;;;5002158;28;20129;-63
2023/06/22 03:49:54;;;;;;;771.53;710.15;;;;;;;;;;5009650;28;20518;-64
2023/06/22 03:52:22;;;;;;;783.40;717.45;;;;;;;;;;5020626;28;20037;-64
2023/06/22 03:54:48;;;;;;;772.60;708.60;;;;;;;;;;5008961;28;20041;-63
2023/06/22 03:57:15;;;;;;;776.70;714.08;;;;;;;;;;5023703;28;20046;-64
2023/06/22 03:59:42;;;;;;;798.03;732.10;;;;;;;;;;5024963;28;20055;-63
2023/06/22 04:02:09;;;;;;;784.60;722.05;;;;;;;;;;5008590;28;20055;-63
2023/06/22 04:04:36;;;;;;;780.85;716.75;;;;;;;;;;5022274;28;20038;-63
2023/06/22 04:07:03;;;;;;;778.47;714.28;;;;;;;;;;5007318;28;20056;-64
2023/06/22 04:09:30;;;;;;;782.35;718.97;;;;;;;;;;5021872;28;20052;-64
2023/06/22 04:11:56;;;;;;;783.92;719.78;;;;;;;;;;5013837;28;20052;-64
2023/06/22 04:14:23;;;;;;;787.10;722.75;;;;;;;;;;4989733;28;20053;-63
2023/06/22 04:16:50;;;;;;;765.13;704.42;;;;;;;;;;5011025;28;20050;-64
2023/06/22 04:19:17;;;;;;;779.60;716.42;;;;;;;;;;5009836;28;20044;-63
2023/06/22 04:21:44;;;;;;;803.15;735.92;;;;;;;;;;5006156;28;20065;-64
2023/06/22 04:24:11;;;;;;;799.90;732.63;;;;;;;;;;5021635;28;20045;-66
2023/06/22 04:26:41;;;;;;;796.53;731.70;;;;;;;;;;4995901;28;20073;-63
2023/06/22 04:29:08;;;;;;;802.85;738.00;;;;;;;;;;4993985;28;20099;-64
2023/06/22 04:31:38;;;;;;;810.78;743.55;;;;;;;;;;5003723;28;20132;-65
2023/06/22 04:34:06;;;;;;;812.17;745.65;;;;;;;;;;5019254;28;20483;-64
2023/06/22 04:36:37;;;;;;;811.88;745.10;;;;;;;;;;5009343;28;20037;-65
2023/06/22 04:39:09;;;;;;;846.08;768.30;;;;;;;;;;5019563;28;20045;-64
2023/06/22 04:41:43;;;;;;;774.17;712.97;;;;;;;;;;5024539;28;20038;-64
2023/06/22 04:44:23;;;;;;;820.63;756.28;;;;;;;;;;5006148;28;20141;-65
2023/06/22 04:46:59;;;;;;;403.45;372.38;;;;;;;;;;5011684;28;20593;-64
2023/06/22 04:49:34;;;;;;;428.70;395.60;;;;;;;;;;5023622;28;20042;-65
2023/06/22 04:52:03;;;;;;;342.90;315.92;;;;;;;;;;5023051;28;20483;-66
2023/06/22 04:54:34;;;;;;;334.05;301.63;;;;;;;;;;5022351;28;20053;-65
2023/06/22 04:57:01;;;;;;;289.42;258.83;;;;;;;;;;5002909;28;20042;-70
2023/06/22 04:59:29;;;;;;;263.17;240.20;;;;;;;;;;5000242;28;20108;-65
2023/06/22 05:03:56;;;;;;;226.35;150.98;;;;;;;;;;4863114;22;1421342;-58
2023/06/22 05:06:24;;;;;;;252.63;141.65;;;;;;;;;;5119299;28;20063;-58
2023/06/22 05:08:53;;;;;;;143.75;128.43;;;;;;;;;;5123655;28;20044;-57
2023/06/22 05:11:20;;;;;;;123.43;91.25;;;;;;;;;;5119366;28;20040;-56
2023/06/22 05:13:47;;;;;;;121.32;83.85;;;;;;;;;;5118497;28;20072;-58
2023/06/22 05:16:14;;;;;;;94.70;84.03;;;;;;;;;;5122987;28;20032;-58
2023/06/22 05:18:41;;;;;;;126.07;82.32;;;;;;;;;;5119649;28;20364;-58
2023/06/22 05:21:09;;;;;;;109.30;96.70;;;;;;;;;;5120081;28;20036;-58
2023/06/22 05:23:36;;;;;;;127.43;114.28;;;;;;;;;;5120164;28;20412;-58
2023/06/22 05:26:03;;;;;;;171.48;101.40;;;;;;;;;;5115858;28;20039;-58
2023/06/22 05:28:30;;;;;;;146.88;120.20;;;;;;;;;;5118203;28;20048;-58
2023/06/22 05:30:57;;;;;;;165.32;138.27;;;;;;;;;;5122006;28;20047;-59
2023/06/22 05:33:24;;;;;;;145.90;129.90;;;;;;;;;;5111786;28;20068;-58
2023/06/22 05:35:51;;;;;;;157.90;126.63;;;;;;;;;;5118259;28;20050;-58
2023/06/22 05:38:18;;;;;;;144.32;128.57;;;;;;;;;;5119291;28;20039;-58
2023/06/22 05:40:45;;;;;;;169.10;123.78;;;;;;;;;;5118794;28;20587;-58
2023/06/22 05:49:13;;;;;;;141.80;125.07;;;;;;;;;;5141212;27;20320;-56
2023/06/22 05:51:41;;;;;;;138.35;122.25;;;;;;;;;;5130647;28;20051;-56
2023/06/22 05:54:08;;;;;;;124.03;111.20;;;;;;;;;;5130416;28;20054;-58
2023/06/22 05:56:36;;;;;;;124.93;112.43;;;;;;;;;;5132181;28;20526;-57
2023/06/22 05:59:03;;;;;;;135.45;117.63;;;;;;;;;;5129070;27;20055;-57
2023/06/22 06:01:34;;;;;;;144.77;132.60;;;;;;;;;;5125740;28;20043;-58
2023/06/22 06:04:03;;;;;;;133.80;120.53;;;;;;;;;;5133611;27;20115;-61
2023/06/22 06:06:31;;;;;;;134.70;123.10;;;;;;;;;;5129240;27;20044;-58
2023/06/22 06:08:59;;;;;;;137.50;124.78;;;;;;;;;;5130368;27;20071;-62
2023/06/22 06:11:26;;;;;;;123.45;102.25;;;;;;;;;;5130844;28;20126;-58
2023/06/22 06:13:53;;;;;;;99.15;77.28;;;;;;;;;;5131322;27;20105;-58
2023/06/22 06:16:22;;;;;;;124.22;64.95;;;;;;;;;;5123108;27;20052;-58
2023/06/22 06:18:50;;;;;;;90.38;56.15;;;;;;;;;;5127889;27;20051;-58
2023/06/22 06:21:17;;;;;;;96.78;54.83;;;;;;;;;;5130531;27;20039;-59
2023/06/22 06:23:44;;;;;;;94.53;51.78;;;;;;;;;;5131978;27;20085;-58
2023/06/22 06:26:11;;;;;;;123.15;49.63;;;;;;;;;;5125032;27;20069;-59
2023/06/22 06:28:38;;;;;;;121.05;47.20;;;;;;;;;;5131557;27;20035;-60
2023/06/22 06:31:08;;;;;;;125.47;51.42;;;;;;;;;;5118886;28;20043;-58
2023/06/22 06:33:36;;;;;;;100.28;52.78;;;;;;;;;;5125067;28;20079;-59
2023/06/22 06:36:03;;;;;;;86.60;53.63;;;;;;;;;;5128826;27;20047;-61
2023/06/22 06:38:30;;;;;;;98.68;55.42;;;;;;;;;;5125441;27;20127;-59
2023/06/22 06:40:58;;;;;;;89.18;57.72;;;;;;;;;;5126547;27;20044;-60
2023/06/22 06:43:25;;;;;;;85.43;55.70;;;;;;;;;;5127591;28;20035;-60
2023/06/22 06:45:52;;;;;;;201.00;67.57;;;;;;;;;;5115679;27;20063;-60
2023/06/22 06:48:19;;;;;;;103.35;69.20;;;;;;;;;;5123383;27;20059;-60
2023/06/22 06:50:46;;;;;;;103.10;72.85;;;;;;;;;;5127214;27;20051;-59
2023/06/22 06:53:13;;;;;;;123.93;83.18;;;;;;;;;;5128996;27;20053;-59
2023/06/22 06:55:40;;;;;;;116.50;88.60;;;;;;;;;;5127625;27;20051;-60
2023/06/22 06:58:09;;;;;;;123.20;92.65;;;;;;;;;;5126744;28;20031;-60
2023/06/22 07:00:37;;;;;;;129.95;97.00;;;;;;;;;;5107510;28;20044;-59
2023/06/22 07:03:04;;;;;;;103.88;92.63;;;;;;;;;;5110359;27;20048;-60
2023/06/22 07:05:31;;;;;;;126.03;87.45;;;;;;;;;;5106765;28;20054;-60
2023/06/22 07:07:58;;;;;;;100.40;77.63;;;;;;;;;;5111607;28;20097;-59
2023/06/22 07:10:26;;;;;;;107.05;74.95;;;;;;;;;;5113257;28;20047;-60
2023/06/22 07:12:53;;;;;;;108.68;74.15;;;;;;;;;;5103925;28;20051;-59
2023/06/22 07:15:20;;;;;;;187.80;81.75;;;;;;;;;;5110779;28;20051;-60
2023/06/22 07:17:47;;;;;;;101.70;74.40;;;;;;;;;;5106495;27;20054;-58
2023/06/22 07:20:14;;;;;;;93.97;81.38;;;;;;;;;;5112025;28;20055;-59
2023/06/22 07:22:42;;;;;;;128.32;95.28;;;;;;;;;;5112770;28;20108;-59
2023/06/22 07:25:10;;;;;;;122.80;93.00;;;;;;;;;;5111593;28;20040;-59
2023/06/22 07:27:46;;;;;;;124.95;94.53;;;;;;;;;;5111210;28;20046;-59
2023/06/22 07:30:13;;;;;;;123.20;101.28;;;;;;;;;;5103642;28;20046;-59
2023/06/22 07:32:41;;;;;;;112.38;100.22;;;;;;;;;;5105371;28;20047;-59
2023/06/22 07:35:08;;;;;;;116.78;105.95;;;;;;;;;;5109540;28;20043;-60
2023/06/22 07:37:35;;;;;;;119.38;108.38;;;;;;;;;;5110989;28;20035;-58
2023/06/22 07:40:06;;;;;;;126.80;113.22;;;;;;;;;;5111346;28;20146;-59
2023/06/22 07:42:33;;;;;;;147.52;117.22;;;;;;;;;;5111226;28;20139;-60
2023/06/22 07:45:01;;;;;;;143.55;128.15;;;;;;;;;;5109405;28;20067;-60
2023/06/22 07:47:28;;;;;;;192.43;132.23;;;;;;;;;;5103717;28;20082;-59
2023/06/22 07:49:58;;;;;;;146.60;133.13;;;;;;;;;;5107975;28;20131;-59
2023/06/22 07:52:27;;;;;;;158.32;129.02;;;;;;;;;;5108491;28;20107;-60
2023/06/22 07:54:54;;;;;;;123.60;107.68;;;;;;;;;;5108566;28;20053;-57
2023/06/22 07:57:21;;;;;;;137.73;93.82;;;;;;;;;;5110543;28;20039;-59
2023/06/22 07:59:49;;;;;;;106.60;82.10;;;;;;;;;;5110717;28;20036;-59
2023/06/22 08:02:16;;;;;;;103.53;64.40;;;;;;;;;;5098680;28;20518;-59
2023/06/22 08:04:43;;;;;;;105.90;65.80;;;;;;;;;;5107101;28;20042;-58
2023/06/22 08:07:10;;;;;;;83.82;54.58;;;;;;;;;;5111039;28;20032;-60
2023/06/22 08:09:37;;;;;;;95.13;54.42;;;;;;;;;;5111046;28;20067;-60
2023/06/22 08:12:04;;;;;;;78.72;56.25;;;;;;;;;;5110971;28;20039;-59
2023/06/22 08:14:32;;;;;;;83.75;57.65;;;;;;;;;;5110706;28;20048;-59
2023/06/22 08:16:59;;;;;;;99.97;64.28;;;;;;;;;;5103364;28;20850;-59
2023/06/22 08:19:26;;;;;;;101.15;63.20;;;;;;;;;;5108294;28;20035;-60
2023/06/22 08:21:53;;;;;;;88.43;71.10;;;;;;;;;;5111253;27;20445;-59
2023/06/22 08:24:20;;;;;;;83.65;73.57;;;;;;;;;;5105433;28;20043;-60
2023/06/22 08:26:47;;;;;;;113.13;81.57;;;;;;;;;;5106095;28;20388;-58
2023/06/22 08:29:15;;;;;;;101.20;74.78;;;;;;;;;;5109768;28;20043;-61
2023/06/22 08:31:41;;;;;;;95.25;71.82;;;;;;;;;;5103113;28;20040;-58
2023/06/22 08:34:09;;;;;;;94.38;75.53;;;;;;;;;;5105998;28;20677;-60
2023/06/22 08:36:41;;;;;;;111.10;78.80;;;;;;;;;;5107841;28;20051;-59
2023/06/22 08:39:08;;;;;;;85.20;74.55;;;;;;;;;;5110955;28;20065;-59
2023/06/22 08:41:35;;;;;;;103.93;80.57;;;;;;;;;;5111106;28;20046;-59
2023/06/22 08:44:03;;;;;;;97.55;74.63;;;;;;;;;;5108551;28;20040;-60
2023/06/22 08:46:33;;;;;;;137.50;79.45;;;;;;;;;;5104850;28;20472;-59
2023/06/22 08:49:00;;;;;;;87.72;74.90;;;;;;;;;;5102245;28;20067;-59
2023/06/22 08:51:28;;;;;;;102.80;75.57;;;;;;;;;;5111207;28;20055;-60
2023/06/22 08:53:55;;;;;;;97.13;70.60;;;;;;;;;;5109676;28;20488;-60
2023/06/22 08:56:22;;;;;;;85.85;65.00;;;;;;;;;;5108185;28;20040;-60
2023/06/22 08:58:49;;;;;;;92.32;57.15;;;;;;;;;;5110059;27;20480;-59
2023/06/22 09:01:20;;;;;;;97.35;59.95;;;;;;;;;;5109130;28;20484;-62
2023/06/22 09:03:54;;;;;;;175.25;64.28;;;;;;;;;;5106375;28;20064;-60
2023/06/22 09:06:21;;;;;;;91.22;52.17;;;;;;;;;;5106074;28;20040;-59
2023/06/22 09:08:49;;;;;;;86.65;51.60;;;;;;;;;;5107095;28;20043;-59
2023/06/22 09:11:16;;;;;;;89.93;53.65;;;;;;;;;;5107858;28;20040;-59
2023/06/22 09:13:43;;;;;;;96.72;48.35;;;;;;;;;;5109233;28;20036;-58
2023/06/22 09:16:11;;;;;;;100.93;52.97;;;;;;;;;;5109952;28;20043;-59
2023/06/22 09:18:38;;;;;;;125.80;56.72;;;;;;;;;;5103545;28;20543;-59
2023/06/22 09:21:05;;;;;;;89.93;53.90;;;;;;;;;;5098301;28;20054;-59
2023/06/22 09:23:33;;;;;;;94.43;55.17;;;;;;;;;;5108558;28;20055;-59
2023/06/22 09:26:00;;;;;;;84.82;49.50;;;;;;;;;;5108939;28;20158;-59
2023/06/22 09:28:27;;;;;;;74.47;56.28;;;;;;;;;;5110558;28;20487;-59
2023/06/22 09:30:58;;;;;;;93.05;52.60;;;;;;;;;;5109000;28;20104;-59
2023/06/22 09:33:26;;;;;;;66.27;55.80;;;;;;;;;;5101870;28;20122;-59
2023/06/22 09:35:53;;;;;;;77.60;56.50;;;;;;;;;;5101269;28;20048;-59
2023/06/22 09:38:20;;;;;;;97.25;59.90;;;;;;;;;;5109919;28;20563;-59
2023/06/22 09:40:47;;;;;;;103.50;64.93;;;;;;;;;;5108270;28;20063;-59
2023/06/22 09:43:14;;;;;;;108.90;67.50;;;;;;;;;;5109286;28;20039;-59
2023/06/22 09:45:41;;;;;;;104.57;77.20;;;;;;;;;;5107997;28;20507;-59
2023/06/22 09:48:09;;;;;;;73.47;58.15;;;;;;;;;;5103572;28;20047;-59
2023/06/22 09:50:37;;;;;;;117.10;66.90;;;;;;;;;;5104520;28;20040;-59
2023/06/22 09:53:04;;;;;;;75.60;61.65;;;;;;;;;;5100129;28;20059;-60
2023/06/22 09:55:31;;;;;;;92.68;60.80;;;;;;;;;;5109023;28;20044;-59
2023/06/22 09:57:58;;;;;;;80.18;61.55;;;;;;;;;;5107970;28;20050;-59
2023/06/22 10:00:26;;;;;;;72.03;59.17;;;;;;;;;;5110279;28;20135;-59
2023/06/22 10:02:55;;;;;;;107.47;71.40;;;;;;;;;;5109366;28;20036;-59
2023/06/22 10:05:26;;;;;;;69.97;60.85;;;;;;;;;;5104394;28;20496;-59
2023/06/22 10:07:54;;;;;;;77.15;69.05;;;;;;;;;;5106264;28;20442;-60
2023/06/22 10:10:21;;;;;;;85.68;66.05;;;;;;;;;;5109816;28;20052;-59
2023/06/22 10:12:55;;;;;;;90.53;62.40;;;;;;;;;;5109758;28;20130;-60
2023/06/22 10:15:22;;;;;;;68.95;56.30;;;;;;;;;;5105146;28;20539;-59
2023/06/22 10:17:49;;;;;;;294.67;63.55;;;;;;;;;;5107101;28;20441;-59
2023/06/22 10:20:18;;;;;;;104.72;51.55;;;;;;;;;;5104427;28;20058;-59
2023/06/22 10:22:45;;;;;;;69.13;44.45;;;;;;;;;;5108030;28;20106;-57
2023/06/22 10:25:13;;;;;;;68.93;39.30;;;;;;;;;;5111038;28;20047;-58
2023/06/22 10:27:40;;;;;;;47.83;31.75;;;;;;;;;;5109526;28;20044;-58
2023/06/22 10:30:08;;;;;;;57.33;37.28;;;;;;;;;;5109941;28;20369;-59
2023/06/22 10:32:37;;;;;;;48.85;33.20;;;;;;;;;;5108614;28;20050;-59
2023/06/22 10:35:04;;;;;;;64.43;40.65;;;;;;;;;;5108141;28;20139;-58
2023/06/22 10:37:54;;;;;;;64.47;38.03;;;;;;;;;;5109183;28;20043;-60
2023/06/22 10:40:21;;;;;;;70.20;34.85;;;;;;;;;;5110970;28;20067;-59
2023/06/22 10:42:50;;;;;;;67.07;37.00;;;;;;;;;;5113110;28;20044;-59
2023/06/22 10:45:16;;;;;;;66.38;33.75;;;;;;;;;;5115047;28;20052;-59
2023/06/22 10:47:44;;;;;;;54.00;34.55;;;;;;;;;;5111214;28;20054;-59
2023/06/22 10:50:11;;;;;;;77.85;37.88;;;;;;;;;;5108896;28;20242;-60
2023/06/22 10:52:39;;;;;;;214.35;47.08;;;;;;;;;;5105877;28;20116;-61
2023/06/22 10:55:06;;;;;;;46.90;33.60;;;;;;;;;;5112790;28;20059;-60
2023/06/22 10:57:33;;;;;;;40.85;35.85;;;;;;;;;;5110405;28;20055;-59
2023/06/22 11:00:00;;;;;;;43.60;38.42;;;;;;;;;;5113603;28;20100;-58
2023/06/22 11:02:28;;;;;;;47.42;43.78;;;;;;;;;;5107811;28;20515;-59
2023/06/22 11:04:55;;;;;;;61.45;51.65;;;;;;;;;;5110098;28;20040;-58
2023/06/22 11:07:22;;;;;;;158.80;71.70;;;;;;;;;;5108240;28;20063;-59
2023/06/22 11:09:49;;;;;;;94.15;71.68;;;;;;;;;;5111653;28;20499;-58
2023/06/22 11:12:16;;;;;;;76.20;68.18;;;;;;;;;;5114838;28;20093;-58
2023/06/22 11:14:43;;;;;;;121.60;77.85;;;;;;;;;;5112107;28;20043;-58
2023/06/22 11:17:10;;;;;;;88.80;78.53;;;;;;;;;;5114333;28;20063;-58
2023/06/22 11:19:36;;;;;;;88.25;80.63;;;;;;;;;;5111036;27;20055;-59
2023/06/22 11:22:04;;;;;;;91.85;83.28;;;;;;;;;;5113348;28;20051;-59
2023/06/22 11:24:31;;;;;;;82.43;74.20;;;;;;;;;;5107846;28;20097;-58
2023/06/22 11:26:58;;;;;;;92.22;82.93;;;;;;;;;;5112458;28;20484;-59
2023/06/22 11:29:25;;;;;;;98.07;89.57;;;;;;;;;;5110711;28;20031;-59
2023/06/22 11:32:04;;;;;;;97.10;87.63;;;;;;;;;;5113325;28;20042;-59
2023/06/22 11:34:31;;;;;;;99.35;89.93;;;;;;;;;;5109131;28;20051;-58
2023/06/22 11:36:58;;;;;;;111.32;98.50;;;;;;;;;;5110355;28;20411;-58
2023/06/22 11:39:25;;;;;;;98.72;88.13;;;;;;;;;;5110909;28;20082;-57
2023/06/22 11:42:07;;;;;;;107.60;97.00;;;;;;;;;;5112608;28;20080;-58
2023/06/22 11:44:34;;;;;;;100.78;92.65;;;;;;;;;;5108835;28;20035;-58
2023/06/22 11:47:03;;;;;;;101.32;91.20;;;;;;;;;;5112108;28;20504;-58
2023/06/22 11:49:30;;;;;;;159.23;107.95;;;;;;;;;;5111083;28;20077;-58
2023/06/22 11:51:57;;;;;;;117.63;106.38;;;;;;;;;;5110393;28;20058;-59
2023/06/22 11:54:24;;;;;;;118.28;108.40;;;;;;;;;;5110793;27;20125;-58
2023/06/22 11:56:51;;;;;;;114.93;104.18;;;;;;;;;;5110555;28;20035;-59
2023/06/22 11:59:18;;;;;;;117.93;106.03;;;;;;;;;;5105468;28;20040;-60
2023/06/22 12:01:46;;;;;;;121.90;109.22;;;;;;;;;;5111944;28;20035;-59
2023/06/22 12:04:13;;;;;;;124.03;111.28;;;;;;;;;;5092821;28;20857;-58
2023/06/22 12:06:42;;;;;;;473.98;129.93;;;;;;;;;;5103994;28;20677;-60
2023/06/22 12:09:09;;;;;;;124.13;113.22;;;;;;;;;;5105341;28;20032;-59
2023/06/22 12:11:36;;;;;;;130.90;118.18;;;;;;;;;;5113079;28;20043;-60
2023/06/22 12:14:04;;;;;;;146.68;89.95;;;;;;;;;;5111903;28;20040;-59
2023/06/22 12:16:31;;;;;;;92.85;83.25;;;;;;;;;;5113376;28;20093;-59
2023/06/22 12:18:58;;;;;;;111.43;89.72;;;;;;;;;;5105226;28;20043;-59
2023/06/22 12:21:25;;;;;;;103.20;89.22;;;;;;;;;;5108014;28;20597;-58
2023/06/22 12:23:52;;;;;;;107.28;82.80;;;;;;;;;;5100235;28;20052;-59
2023/06/22 12:26:19;;;;;;;95.22;85.20;;;;;;;;;;5111410;28;20100;-59
2023/06/22 12:28:47;;;;;;;116.00;87.43;;;;;;;;;;5110681;28;20092;-58
2023/06/22 12:31:14;;;;;;;111.07;87.70;;;;;;;;;;5108294;28;20488;-59
2023/06/22 12:33:41;;;;;;;94.35;80.40;;;;;;;;;;5112746;28;20051;-59
2023/06/22 12:36:08;;;;;;;92.72;84.05;;;;;;;;;;5108408;28;20059;-59
2023/06/22 12:38:36;;;;;;;87.47;78.45;;;;;;;;;;5101182;28;20093;-59
2023/06/22 12:41:03;;;;;;;97.93;87.97;;;;;;;;;;5110365;28;20558;-59
2023/06/22 12:43:30;;;;;;;109.28;82.95;;;;;;;;;;5112486;28;20027;-58
2023/06/22 12:45:57;;;;;;;98.45;83.50;;;;;;;;;;5127139;27;20059;-59
2023/06/22 12:48:25;;;;;;;96.80;86.88;;;;;;;;;;5112590;28;20500;-59
2023/06/22 12:50:52;;;;;;;121.43;85.32;;;;;;;;;;5106712;28;20557;-59
2023/06/22 12:53:23;;;;;;;130.95;96.43;;;;;;;;;;5108042;28;20078;-60
2023/06/22 12:55:50;;;;;;;168.27;94.88;;;;;;;;;;5124298;27;20123;-58
2023/06/22 12:58:17;;;;;;;92.05;82.40;;;;;;;;;;5108392;28;20100;-59
2023/06/22 13:00:44;;;;;;;131.75;98.78;;;;;;;;;;5111023;28;20052;-58
2023/06/22 13:03:11;;;;;;;106.07;95.55;;;;;;;;;;5111861;28;20058;-58
2023/06/22 13:05:39;;;;;;;99.00;89.75;;;;;;;;;;5108137;28;20039;-58
2023/06/22 13:08:06;;;;;;;103.18;89.45;;;;;;;;;;5105920;28;20078;-60
2023/06/22 13:10:33;;;;;;;87.65;80.03;;;;;;;;;;5106290;28;20054;-59
2023/06/22 13:13:00;;;;;;;89.35;81.07;;;;;;;;;;5109630;28;20044;-58
2023/06/22 13:15:28;;;;;;;92.05;83.90;;;;;;;;;;5112071;28;20051;-58
2023/06/22 13:17:56;;;;;;;94.63;84.93;;;;;;;;;;5109999;28;20046;-58
2023/06/22 13:20:23;;;;;;;102.75;86.18;;;;;;;;;;5106472;28;20128;-59
2023/06/22 13:22:50;;;;;;;86.43;77.78;;;;;;;;;;5105795;28;20118;-58
2023/06/22 13:25:19;;;;;;;121.15;89.25;;;;;;;;;;5103239;28;20051;-58
2023/06/22 13:27:46;;;;;;;121.85;75.72;;;;;;;;;;5110213;28;20496;-59
2023/06/22 13:30:13;;;;;;;99.15;72.53;;;;;;;;;;5111597;28;20043;-60
2023/06/22 13:32:43;;;;;;;99.38;88.72;;;;;;;;;;5109373;28;20385;-59
2023/06/22 13:35:11;;;;;;;173.05;85.20;;;;;;;;;;5106012;28;20489;-59
2023/06/22 13:37:38;;;;;;;82.43;74.75;;;;;;;;;;5103645;28;20051;-59
2023/06/22 13:40:06;;;;;;;93.45;72.10;;;;;;;;;;5107431;28;20134;-59
2023/06/22 13:42:33;;;;;;;75.80;69.55;;;;;;;;;;5109833;28;20081;-59
2023/06/22 13:45:01;;;;;;;76.95;69.13;;;;;;;;;;5106649;28;20047;-58
2023/06/22 13:47:29;;;;;;;74.93;67.10;;;;;;;;;;5111697;28;20054;-58
2023/06/22 13:49:57;;;;;;;137.90;70.97;;;;;;;;;;5110929;28;20126;-58
2023/06/22 13:52:24;;;;;;;79.85;65.30;;;;;;;;;;5105430;28;20070;-59
2023/06/22 13:54:51;;;;;;;92.88;69.75;;;;;;;;;;5109566;28;20093;-60
2023/06/22 13:57:19;;;;;;;86.72;69.32;;;;;;;;;;5108901;28;20077;-58
2023/06/22 13:59:46;;;;;;;68.03;61.22;;;;;;;;;;5112800;28;20069;-58
2023/06/22 14:04:32;;;;;;;122.43;71.05;;;;;;;;;;4883238;22;1417136;-58
2023/06/22 14:06:59;;;;;;;197.18;81.38;;;;;;;;;;5082903;28;20048;-60
2023/06/22 14:09:26;;;;;;;102.10;69.95;;;;;;;;;;5071374;28;20049;-58
2023/06/22 14:11:54;;;;;;;80.55;72.13;;;;;;;;;;5061673;28;20511;-59
2023/06/22 14:14:20;;;;;;;80.18;72.93;;;;;;;;;;5084504;28;20086;-58
2023/06/22 14:16:49;;;;;;;77.60;70.50;;;;;;;;;;5077972;28;20040;-58